Terminal Aerodrome Forecast
Issued by NWS Buffalo, NY

Home | Current Version | Previous Version | Text Only | Print | Product List | Glossary On
Versions: 1 2 3 4 5 6 7 8 9 10 11 12 13 14 15 16 17 18 19 20 21 22 23 24 25
000
FTUS41 KBUF 020900 AAA
TAFART
TAF AMD
KART 020900Z 0209/0306 00000KT P6SM SCT100
     FM021400 20004KT P6SM SCT060 OVC140
     FM021700 20006KT 6SM -SHRA VCTS SCT060CB OVC140
     FM022100 18005KT 6SM -SHRA SCT060 OVC090
     FM030200 00000KT P6SM BKN120=

USA.gov is the U.S. government's official web portal to all federal, state and local government web resources and services.